MET'MAP v2.0
soon released !

Expected late october,
this new version will be
more efficient, smarter,
and hosted on a brand new
server x3 powerfull...
...and still free !


Not compatible ?
Try the mobile version !

LOG IN : | Subscribe | Disclaimer | Who is Orbifly ? |
ICAO code :

TAF - ETND Diepholz Airport - 01 Oct 2020 07:08 UTC
Data Sources :     NOAA   


- Airport Elevation : 128 ft
- No reported NOTAMs.


ETND - Diepholz Airport

Latest METAR recorded : 2015/08/11 07:20 ETND 110720Z 31001KT 9999 FEW150 BKN270 19/14 Q1018 BLU+
TAF TAF ETND
Valid from the 01 at 05:00 until the 01 at 14:00 UTC


010421Z 0105/0114 11008KT 8000 NSW BKN200
TEMPO 0105/0108 10005KT 4000 BR FEW200
BECMG 0110/0112 13010G20KT 9999 NSW FEW020 BKN180 BKN300 BY ETGL

Source NOAA


MET'MAP, your aeronautical weather chart ! - Copyright ORBIFLY December 2007

Programming & Development : Alexandra Zaïnal
Co-Developer : Marc-Olivier Méhu
Technical & hardware support : Manuel Goepfert
Concept & Financing : Baudouin d'Aumeries